Springfield, OH (45505)

8:29 PM EST on February 11, 2016 (GMT -0500)
Werner Ent. Springfield, OH | | Change Station
CLOSE
Current Station
Personal Weather Station
Location: Springfield, OH
Elevation: 1048 ft
Nearby Weather Stations

Elev 1048 ft 39.90 °N, 83.73 °W | Updated 6 seconds ago

Overcast
Overcast
18.8 °F
Feels Like 19 °F
N
2.0
Wind Variable Wind from WSW
Gusts 4.0 mph

Today
High -- | Low -- °F
--% Chance of Precip.
Yesterday
High -- | Low -- °F
Precip. -- in
Pressure 30.37 in
Visibility 10.0 miles
Clouds Few 3300 ft
Overcast 4100 ft
Windchill 19 °F
Dew Point 8 °F
Humidity 63%
Rainfall 0.00 in
Snow Depth Not available.
7:33 AM 6:05 PM
Waxing Crescent, 16% visible
METAR KSGH 120056Z AUTO 00000KT 10SM FEW033 OVC041 M10/M15 A3030 RMK AO2 T11001150 SLP282
Pressure 30.37 in
Visibility 10.0 miles
Clouds Few 3300 ft
Overcast 4100 ft
Windchill 19 °F
Dew Point 8 °F
Humidity 63%
Rainfall 0.00 in
Snow Depth Not available.
7:33 AM 6:05 PM
Waxing Crescent, 16% visible
METAR KSGH 120056Z AUTO 00000KT 10SM FEW033 OVC041 M10/M15 A3030 RMK AO2 T11001150 SLP282

10-Day Weather Forecast

Almanac

Astronomy

Feb. 11, 2016 Rise Set
Actual Time
Civil Twilight
Nautical Twilight
Astronomical Twilight
Moon
Length of Visible Light
Length of Day
Tomorrow will be .
, % of the Moon is Illuminated

Today's Extremes

State Highs State Lows

Community

WunderPhotos

Upload Photos

1,892,205 photos uploaded!

WunderBlog® & News

Nearby

Air Quality

  Air Quality AQ Index Pollutant
Not available.

Snow Depth

Station Depth Elevation

Earthquake Activity

City Distance Mag. Time & Date
Minimum magnitude displayed is 2.5.

Coastal Water Temperatures

Place Temperature

Stations

Nearby Weather Stations

Station Location Temp. Windchill Dew Point Humidity Wind Precip. Elev Updated Type
                   

Watches & Warnings

There are currently no watches in effect.